LKCS weather

České Budějovice Airport
České Budějovice, South Bohemian Region, Czechia

Public forecast

Using degrees Celsius for public forecast. Weather courtesy of forecast.io.

METAR (pilot weather report)

Closest report is Linz Hörsching Airport, 43.9 nm (81.2 km) SSW. Retrieved 2019/05/22 14:20 UTC (30 minutes ago):

LOWL 221420Z 27014KT 9999 -RA FEW012 BKN025 BKN035 14/11 Q1016 NOSIG

TAF (pilot weather forecast)

Closest forecast is Linz Hörsching Airport, 43.9 nm (81.2 km) SSW. Retrieved 2019/05/22 12:21 UTC (2 hours ago):

TAF LOWL 221115Z 2212/2312 26012KT 9999 SCT025 BKN050 TX17/2312Z TN10/2303Z TEMPO 2212/2214 27016G26KT BKN018 PROB30 TEMPO 2302/2306 24003KT 3000 BR BKN005